Time;durP1;ratioP1;P1;durP2;ratioP2;P2;SDS_P1;SDS_P2;PMS_P1;PMS_P2;Temp;Humidity;BMP_temperature;BMP_pressure;BME280_temperature;BME280_humidity;BME280_pressure;Samples;Min_cycle;Max_cycle;Signal;HPM_P1;HPM_P2
2023/06/20 00:00:50;;;;;;;;;;;;;;;21.03;59.36;101124.47;5026346;28;1506;-78
2023/06/20 00:03:16;;;;;;;;;;;;;;;21.01;59.43;101123.84;5021174;28;1256;-77
2023/06/20 00:05:41;;;;;;;;;;;;;;;20.98;59.48;101116.31;5022901;28;1906;-76
2023/06/20 00:08:06;;;;;;;;;;;;;;;20.95;59.61;101116.69;5024381;28;1204;-76
2023/06/20 00:10:31;;;;;;;;;;;;;;;20.90;59.38;101119.88;5028043;28;1279;-77
2023/06/20 00:12:57;;;;;;;;;;;;;;;20.88;59.47;101113.16;5015923;28;1217;-77
2023/06/20 00:15:25;;;;;;;;;;;;;;;20.88;59.42;101115.81;5021950;28;1301;-79
2023/06/20 00:17:51;;;;;;;;;;;;;;;20.90;59.35;101108.53;5020565;28;1284;-76
2023/06/20 00:20:16;;;;;;;;;;;;;;;20.85;59.26;101116.16;5021246;28;1354;-78
2023/06/20 00:22:41;;;;;;;;;;;;;;;20.85;59.32;101110.88;5018315;28;1289;-76
2023/06/20 00:25:07;;;;;;;;;;;;;;;20.83;59.07;101115.53;5021680;28;1957;-77
2023/06/20 00:27:32;;;;;;;;;;;;;;;20.80;59.07;101113.25;5016519;28;1523;-76
2023/06/20 00:29:57;;;;;;;;;;;;;;;20.78;59.05;101112.66;5018228;28;1613;-76
2023/06/20 00:32:22;;;;;;;;;;;;;;;20.76;58.99;101112.84;5038067;28;1226;-77
2023/06/20 00:34:48;;;;;;;;;;;;;;;20.75;58.91;101110.34;5028287;28;1331;-76
2023/06/20 00:37:13;;;;;;;;;;;;;;;20.74;59.02;101108.72;5020657;28;1385;-78
2023/06/20 00:39:38;;;;;;;;;;;;;;;20.71;58.89;101094.13;5015915;28;1334;-76
2023/06/20 00:42:04;;;;;;;;;;;;;;;20.69;58.75;101104.81;5022692;28;1106;-77
2023/06/20 00:44:30;;;;;;;;;;;;;;;20.71;58.67;101101.22;5019263;28;1890;-78
2023/06/20 00:46:55;;;;;;;;;;;;;;;20.72;58.80;101110.75;5020112;28;1466;-77
2023/06/20 00:49:20;;;;;;;;;;;;;;;20.69;58.72;101096.91;5020450;28;1076;-77
2023/06/20 00:51:46;;;;;;;;;;;;;;;20.66;58.52;101102.56;5016626;28;1603;-76
2023/06/20 00:54:11;;;;;;;;;;;;;;;20.66;58.49;101102.56;5018037;28;1145;-76
2023/06/20 00:56:37;;;;;;;;;;;;;;;20.65;58.29;101087.75;5025967;28;1219;-76
2023/06/20 00:59:03;;;;;;;;;;;;;;;20.64;58.19;101091.41;5023177;28;1227;-76
2023/06/20 01:01:31;;;;;;;;;;;;;;;20.66;58.59;101086.75;5022410;28;1260;-76
2023/06/20 01:03:57;;;;;;;;;;;;;;;20.65;58.28;101089.59;5021834;28;1890;-78
2023/06/20 01:06:32;;;;;;;;;;;;;;;20.64;58.10;101099.31;5021904;28;1771;-77
2023/06/20 01:09:04;;;;;;;;;;;;;;;20.62;58.04;101096.03;5020322;28;1290;-76
2023/06/20 01:11:34;;;;;;;;;;;;;;;20.62;58.12;101089.94;5022248;28;1269;-76
2023/06/20 01:14:02;;;;;;;;;;;;;;;20.62;58.19;101096.03;5024086;28;1436;-77
2023/06/20 01:16:36;;;;;;;;;;;;;;;20.62;58.02;101101.28;5018081;28;1246;-77
2023/06/20 01:19:11;;;;;;;;;;;;;;;20.61;58.14;101099.66;5038521;28;1302;-76
2023/06/20 01:21:39;;;;;;;;;;;;;;;20.62;58.07;101101.28;5020232;28;1266;-76
2023/06/20 01:24:15;;;;;;;;;;;;;;;20.62;58.04;101096.03;5023136;28;1957;-76
2023/06/20 01:26:40;;;;;;;;;;;;;;;20.59;57.96;101080.59;5020840;28;1428;-76
2023/06/20 01:29:12;;;;;;;;;;;;;;;20.58;57.97;101094.75;5022930;28;1573;-76
2023/06/20 01:31:40;;;;;;;;;;;;;;;20.57;58.14;101087.84;5020241;28;1241;-77
2023/06/20 01:34:20;;;;;;;;;;;;;;;20.59;58.23;101083.22;5012260;28;1165;-78
2023/06/20 01:36:49;;;;;;;;;;;;;;;20.56;58.25;101085.41;5019286;28;1277;-76
2023/06/20 01:39:17;;;;;;;;;;;;;;;20.55;58.26;101083.78;5015343;28;1420;-77
2023/06/20 01:41:44;;;;;;;;;;;;;;;20.55;58.28;101083.78;5015742;28;1326;-77
2023/06/20 01:44:11;;;;;;;;;;;;;;;20.53;58.51;101077.84;5018925;28;1938;-77
2023/06/20 01:46:36;;;;;;;;;;;;;;;20.51;58.33;101083.31;5019074;28;1243;-76
2023/06/20 01:49:02;;;;;;;;;;;;;;;20.51;58.84;101072.78;5022103;28;1345;-77
2023/06/20 01:51:28;;;;;;;;;;;;;;;20.52;58.53;101069.13;5017163;28;1261;-78
2023/06/20 01:53:55;;;;;;;;;;;;;;;20.54;58.61;101072.44;5024022;28;1496;-76
2023/06/20 01:56:21;;;;;;;;;;;;;;;20.55;58.60;101071.41;5018085;28;1553;-77
2023/06/20 01:58:46;;;;;;;;;;;;;;;20.56;58.72;101065.13;5016918;28;1710;-77
2023/06/20 02:01:12;;;;;;;;;;;;;;;20.55;58.74;101065.34;5026838;28;1452;-77
2023/06/20 02:03:41;;;;;;;;;;;;;;;20.53;58.59;101065.53;5022515;28;1105;-78
2023/06/20 02:06:07;;;;;;;;;;;;;;;20.53;58.53;101064.69;5021603;28;1205;-77
2023/06/20 02:08:34;;;;;;;;;;;;;;;20.53;58.52;101070.78;5021318;28;1350;-77
2023/06/20 02:11:00;;;;;;;;;;;;;;;20.52;58.57;101069.13;5026486;28;2177;-76
2023/06/20 02:13:25;;;;;;;;;;;;;;;20.51;58.63;101064.88;5022363;28;1199;-78
2023/06/20 02:15:52;;;;;;;;;;;;;;;20.48;58.80;101056.53;5029449;28;1465;-77
2023/06/20 02:18:18;;;;;;;;;;;;;;;20.47;58.95;101050.44;5021390;28;1460;-76
2023/06/20 02:20:43;;;;;;;;;;;;;;;20.48;58.68;101056.53;5024481;28;1156;-77
2023/06/20 02:23:09;;;;;;;;;;;;;;;20.44;58.94;101048.13;5028628;28;1323;-78
2023/06/20 02:25:35;;;;;;;;;;;;;;;20.45;58.78;101052.41;5026213;28;1963;-76
2023/06/20 02:28:02;;;;;;;;;;;;;;;20.47;59.05;101045.16;5026053;28;1223;-77
2023/06/20 02:30:30;;;;;;;;;;;;;;;20.44;59.28;101045.50;5027278;28;1463;-77
2023/06/20 02:32:56;;;;;;;;;;;;;;;20.43;59.09;101049.16;5014917;28;2829;-78
2023/06/20 02:35:23;;;;;;;;;;;;;;;20.44;59.08;101045.50;5013497;28;1275;-78
2023/06/20 02:37:49;;;;;;;;;;;;;;;20.43;59.85;101047.31;5017424;28;1427;-78
2023/06/20 02:40:14;;;;;;;;;;;;;;;20.43;59.16;101044.69;5013520;28;1340;-79
2023/06/20 02:42:39;;;;;;;;;;;;;;;20.42;59.53;101047.53;5023393;28;1318;-78
2023/06/20 02:45:05;;;;;;;;;;;;;;;20.39;59.75;101042.59;5027939;28;1898;-78
2023/06/20 02:47:38;;;;;;;;;;;;;;;20.37;59.65;101044.63;5022865;28;1156;-78
2023/06/20 02:50:11;;;;;;;;;;;;;;;20.38;59.57;101051.50;5021226;28;1111;-78
2023/06/20 02:52:36;;;;;;;;;;;;;;;20.39;59.84;101053.16;5022943;28;1305;-78
2023/06/20 02:55:10;;;;;;;;;;;;;;;20.37;59.63;101049.88;5020942;28;1090;-78
2023/06/20 02:57:38;;;;;;;;;;;;;;;20.36;59.60;101053.53;5024380;28;1296;-78
2023/06/20 03:00:09;;;;;;;;;;;;;;;20.34;59.69;101050.25;5020205;28;1273;-79
2023/06/20 03:02:35;;;;;;;;;;;;;;;20.33;59.72;101045.97;5022805;28;1652;-78
2023/06/20 03:05:01;;;;;;;;;;;;;;;20.33;59.88;101045.97;5023695;28;1914;-78
2023/06/20 03:07:27;;;;;;;;;;;;;;;20.34;60.13;101034.44;5020157;28;1368;-78
2023/06/20 03:09:54;;;;;;;;;;;;;;;20.34;59.64;101031.78;5023196;28;1581;-78
2023/06/20 03:12:20;;;;;;;;;;;;;;;20.32;60.17;101028.53;5023496;28;1242;-78
2023/06/20 03:14:45;;;;;;;;;;;;;;;20.31;60.27;101038.25;5027890;28;1276;-78
2023/06/20 03:17:10;;;;;;;;;;;;;;;20.31;60.03;101032.19;5015945;28;1226;-78
2023/06/20 03:19:35;;;;;;;;;;;;;;;20.32;60.23;101031.19;5025219;28;1354;-78
2023/06/20 03:22:01;;;;;;;;;;;;;;;20.31;60.28;101034.81;5023415;28;1328;-78
2023/06/20 03:24:26;;;;;;;;;;;;;;;20.28;60.48;101024.63;5027969;28;1890;-77
2023/06/20 03:26:51;;;;;;;;;;;;;;;20.29;60.15;101029.72;5027367;28;1230;-78
2023/06/20 03:29:16;;;;;;;;;;;;;;;20.24;60.73;101033.91;5021309;28;1539;-78
2023/06/20 03:31:41;;;;;;;;;;;;;;;20.21;60.49;101023.75;5023469;28;1335;-77
2023/06/20 03:34:06;;;;;;;;;;;;;;;20.18;60.92;101024.91;5025977;28;1129;-78
2023/06/20 03:36:32;;;;;;;;;;;;;;;20.16;60.41;101021.66;5022942;28;1256;-78
2023/06/20 03:38:57;;;;;;;;;;;;;;;20.17;60.32;101013.56;5018919;28;1320;-79
2023/06/20 03:41:22;;;;;;;;;;;;;;;20.12;60.49;101017.75;5025972;28;1259;-77
2023/06/20 03:43:47;;;;;;;;;;;;;;;20.10;61.01;101004.75;5017398;28;1902;-78
2023/06/20 03:46:13;;;;;;;;;;;;;;;20.09;60.92;101004.97;5016973;28;1264;-77
2023/06/20 03:48:38;;;;;;;;;;;;;;;20.10;61.19;101012.66;5022297;28;1416;-79
2023/06/20 03:51:03;;;;;;;;;;;;;;;20.09;61.25;101008.41;5014661;28;1358;-77
2023/06/20 03:53:28;;;;;;;;;;;;;;;20.07;61.14;101002.50;5024178;28;1511;-78
2023/06/20 03:55:53;;;;;;;;;;;;;;;20.04;61.38;101008.13;5022175;28;1428;-77
2023/06/20 03:58:19;;;;;;;;;;;;;;;20.03;61.38;101010.97;5019459;28;1331;-78
2023/06/20 04:00:46;;;;;;;;;;;;;;;20.04;61.66;101023.94;5023719;28;1264;-78
2023/06/20 04:03:11;;;;;;;;;;;;;;;20.04;61.76;101023.94;5022023;28;1268;-77
2023/06/20 04:05:37;;;;;;;;;;;;;;;20.04;61.50;101023.94;5020388;28;1903;-78
2023/06/20 04:08:03;;;;;;;;;;;;;;;20.02;61.65;101031.22;5024093;28;1611;-78
2023/06/20 04:10:28;;;;;;;;;;;;;;;20.04;61.53;101029.19;5022615;28;1671;-78
2023/06/20 04:12:53;;;;;;;;;;;;;;;20.05;61.61;101036.09;5019978;28;1416;-78
2023/06/20 04:15:18;;;;;;;;;;;;;;;20.06;62.14;101037.72;5019334;28;2176;-78
2023/06/20 04:17:45;;;;;;;;;;;;;;;20.05;62.22;101036.09;5016899;28;1909;-78
2023/06/20 04:20:14;;;;;;;;;;;;;;;20.06;61.70;101032.44;5021443;28;2167;-78
2023/06/20 04:22:44;;;;;;;;;;;;;;;20.09;61.70;101037.38;5023311;28;1275;-78
2023/06/20 04:25:10;;;;;;;;;;;;;;;20.11;62.19;101039.81;5022574;28;1898;-79
2023/06/20 04:27:35;;;;;;;;;;;;;;;20.07;62.01;101036.75;5024300;28;1488;-78
2023/06/20 04:30:01;;;;;;;;;;;;;;;20.04;62.03;101042.34;5020529;28;1122;-78
2023/06/20 04:32:26;;;;;;;;;;;;;;;20.03;62.03;101046.00;5037097;28;1425;-78
2023/06/20 04:34:52;;;;;;;;;;;;;;;20.00;62.33;101043.72;5022825;28;1321;-78
2023/06/20 04:37:17;;;;;;;;;;;;;;;19.99;62.40;101036.81;5025143;28;1307;-80
2023/06/20 04:39:43;;;;;;;;;;;;;;;19.98;62.46;101035.19;5022022;28;1218;-79
2023/06/20 04:42:08;;;;;;;;;;;;;;;20.02;62.22;101040.91;5016699;28;1090;-78
2023/06/20 04:44:33;;;;;;;;;;;;;;;20.02;62.62;101028.56;5019118;28;1914;-80
2023/06/20 04:46:58;;;;;;;;;;;;;;;20.00;62.83;101033.19;5042826;28;1315;-80
2023/06/20 04:49:24;;;;;;;;;;;;;;;20.03;62.94;101032.84;5023844;28;1045;-79
2023/06/20 04:51:49;;;;;;;;;;;;;;;20.03;62.60;101032.84;5035926;28;1287;-79
2023/06/20 04:54:14;;;;;;;;;;;;;;;20.03;62.45;101032.84;5022637;28;1381;-79
2023/06/20 04:56:42;;;;;;;;;;;;;;;20.06;63.71;101029.81;5021082;28;1156;-78
2023/06/20 04:59:08;;;;;;;;;;;;;;;20.09;63.69;101026.03;5028749;28;1095;-78
2023/06/20 05:01:33;;;;;;;;;;;;;;;20.11;63.33;101024.81;5022955;28;1117;-78
2023/06/20 05:03:59;;;;;;;;;;;;;;;20.16;63.16;101022.47;5023863;28;1932;-78
2023/06/20 05:06:24;;;;;;;;;;;;;;;20.23;63.17;101032.25;5026104;28;1401;-78
2023/06/20 05:08:51;;;;;;;;;;;;;;;20.24;63.09;101033.91;5022935;28;1280;-78
2023/06/20 05:11:17;;;;;;;;;;;;;;;20.25;63.34;101019.75;5022697;28;1574;-78
2023/06/20 05:13:42;;;;;;;;;;;;;;;20.29;62.81;101031.53;5017177;28;1394;-78
2023/06/20 05:16:07;;;;;;;;;;;;;;;20.32;63.64;101028.53;5024950;28;1223;-78
2023/06/20 05:18:32;;;;;;;;;;;;;;;20.36;63.20;101029.81;5020251;28;1279;-79
2023/06/20 05:20:57;;;;;;;;;;;;;;;20.39;63.20;101027.63;5024001;28;1318;-79
2023/06/20 05:23:25;;;;;;;;;;;;;;;20.45;63.10;101020.78;5018857;28;1297;-78
2023/06/20 05:25:50;;;;;;;;;;;;;;;20.44;64.45;101021.78;5017330;28;1995;-79
2023/06/20 05:28:15;;;;;;;;;;;;;;;20.45;63.93;101010.25;5020001;28;1466;-78
2023/06/20 05:30:40;;;;;;;;;;;;;;;20.50;63.93;101018.44;5016472;28;1267;-78
2023/06/20 05:33:06;;;;;;;;;;;;;;;20.54;64.04;101011.81;5021873;28;1311;-78
2023/06/20 05:35:31;;;;;;;;;;;;;;;20.60;63.79;101004.97;5021883;28;1166;-79
2023/06/20 05:37:57;;;;;;;;;;;;;;;20.67;63.10;101003.22;5023835;28;1502;-78
2023/06/20 05:40:22;;;;;;;;;;;;;;;20.69;63.79;100999.38;5019719;28;1456;-78
2023/06/20 05:42:47;;;;;;;;;;;;;;;20.73;63.92;100985.84;5022955;28;1301;-78
2023/06/20 05:45:12;;;;;;;;;;;;;;;20.75;63.31;100994.38;5027729;28;1890;-78
2023/06/20 05:47:38;;;;;;;;;;;;;;;20.79;64.55;100995.63;5024486;28;1317;-78
2023/06/20 05:50:03;;;;;;;;;;;;;;;20.83;63.66;100994.28;5023252;28;1132;-78
2023/06/20 05:52:28;;;;;;;;;;;;;;;20.86;63.80;100993.88;5015652;28;1163;-79
2023/06/20 05:54:54;;;;;;;;;;;;;;;20.90;63.25;100992.50;5027435;28;1212;-79
2023/06/20 05:57:20;;;;;;;;;;;;;;;20.92;63.54;100985.22;5027375;28;1463;-79
2023/06/20 05:59:45;;;;;;;;;;;;;;;20.94;63.69;100988.50;5024667;28;1193;-80
2023/06/20 06:02:10;;;;;;;;;;;;;;;20.99;64.03;100987.91;5015751;28;1248;-78
2023/06/20 06:04:35;;;;;;;;;;;;;;;21.01;63.29;100989.38;5025569;28;1947;-79
2023/06/20 06:07:00;;;;;;;;;;;;;;;21.03;63.92;100982.06;5025080;28;1237;-79
2023/06/20 06:09:26;;;;;;;;;;;;;;;21.07;64.47;100982.50;5021148;28;1447;-79
2023/06/20 06:11:51;;;;;;;;;;;;;;;21.09;63.85;100986.59;5021662;28;1289;-79
2023/06/20 06:14:16;;;;;;;;;;;;;;;21.16;64.48;100989.25;5023423;28;1272;-79
2023/06/20 06:16:41;;;;;;;;;;;;;;;21.25;63.64;101000.50;5022651;28;1221;-79
2023/06/20 06:19:07;;;;;;;;;;;;;;;21.34;63.34;100994.13;5027165;28;1386;-80
2023/06/20 06:21:32;;;;;;;;;;;;;;;21.42;63.31;100997.44;5027565;28;1166;-79
2023/06/20 06:23:57;;;;;;;;;;;;;;;21.53;63.57;101004.00;5019350;28;1886;-79
2023/06/20 06:26:22;;;;;;;;;;;;;;;21.59;63.46;101002.41;5022107;28;1269;-80
2023/06/20 06:28:48;;;;;;;;;;;;;;;21.66;63.05;101003.28;5025275;28;1323;-80
2023/06/20 06:31:15;;;;;;;;;;;;;;;21.74;63.82;101000.50;5018212;28;1365;-80
2023/06/20 06:33:40;;;;;;;;;;;;;;;21.80;63.11;100998.91;5021719;28;1402;-81
2023/06/20 06:36:08;;;;;;;;;;;;;;;21.83;62.78;100999.31;5017541;28;1305;-80
2023/06/20 06:38:33;;;;;;;;;;;;;;;21.87;62.99;101005.03;5019657;28;1139;-80
2023/06/20 06:40:59;;;;;;;;;;;;;;;21.92;62.78;101006.06;5014506;28;1120;-79
2023/06/20 06:43:24;;;;;;;;;;;;;;;21.97;62.81;101008.94;5022458;28;1239;-80
2023/06/20 06:45:50;;;;;;;;;;;;;;;22.02;62.80;101005.69;5035175;28;1902;-80
2023/06/20 06:48:15;;;;;;;;;;;;;;;22.07;62.98;101016.50;5026315;28;1311;-80
2023/06/20 06:50:41;;;;;;;;;;;;;;;22.16;62.62;101012.72;5016882;28;1293;-80
2023/06/20 06:53:06;;;;;;;;;;;;;;;22.23;62.60;100997.69;5014639;28;1412;-80
2023/06/20 06:55:31;;;;;;;;;;;;;;;22.27;63.01;100996.31;5041906;28;1497;-80
2023/06/20 06:57:57;;;;;;;;;;;;;;;22.32;63.02;100993.06;5023655;28;1669;-81
2023/06/20 07:00:22;;;;;;;;;;;;;;;22.45;62.63;101002.88;5022615;28;1213;-80
2023/06/20 07:02:48;;;;;;;;;;;;;;;22.50;63.39;101000.44;5014631;28;1261;-80
2023/06/20 07:05:13;;;;;;;;;;;;;;;22.55;62.53;101002.50;5019843;28;1996;-81
2023/06/20 07:07:38;;;;;;;;;;;;;;;22.63;62.39;101011.03;5020623;28;1561;-80
2023/06/20 07:10:04;;;;;;;;;;;;;;;22.69;62.23;101004.94;5016463;28;1270;-81
2023/06/20 07:12:29;;;;;;;;;;;;;;;22.76;62.24;101000.47;5018770;28;1278;-80
2023/06/20 07:14:57;;;;;;;;;;;;;;;22.83;62.11;101000.53;5019713;28;1444;-80
2023/06/20 07:17:23;;;;;;;;;;;;;;;22.86;62.23;101009.88;5019848;28;1197;-80
2023/06/20 07:19:49;;;;;;;;;;;;;;;22.89;62.07;100991.00;5020823;28;1093;-80
2023/06/20 07:22:14;;;;;;;;;;;;;;;22.96;62.08;100989.16;5023344;28;1237;-80
2023/06/20 07:24:39;;;;;;;;;;;;;;;22.99;62.06;100988.75;5021718;28;1890;-81
2023/06/20 07:27:04;;;;;;;;;;;;;;;23.03;62.22;100984.69;5018294;28;1472;-80
2023/06/20 07:29:29;;;;;;;;;;;;;;;23.10;62.02;100980.19;5023368;28;1130;-81
2023/06/20 07:31:55;;;;;;;;;;;;;;;23.22;61.83;100983.84;5023565;28;1341;-80
2023/06/20 07:34:20;;;;;;;;;;;;;;;23.37;62.25;100975.72;5025390;28;1269;-80
2023/06/20 07:36:45;;;;;;;;;;;;;;;23.50;61.92;100980.16;5021268;28;1289;-81
2023/06/20 07:39:10;;;;;;;;;;;;;;;23.58;61.46;100985.25;5021757;28;1351;-80
2023/06/20 07:41:36;;;;;;;;;;;;;;;23.61;61.39;100987.47;5018805;28;1310;-81
2023/06/20 07:44:01;;;;;;;;;;;;;;;23.67;61.14;100991.16;5021818;28;1898;-81
2023/06/20 07:46:26;;;;;;;;;;;;;;;23.70;62.04;100974.88;5020186;28;1613;-81
2023/06/20 07:48:51;;;;;;;;;;;;;;;23.77;61.66;100968.53;5023295;28;1316;-81
2023/06/20 07:51:17;;;;;;;;;;;;;;;23.84;61.21;100969.31;5013115;28;1134;-81
2023/06/20 07:53:42;;;;;;;;;;;;;;;23.92;60.94;100963.00;5021579;28;1350;-81
2023/06/20 07:56:07;;;;;;;;;;;;;;;24.01;61.21;100976.81;5010293;28;1820;-82
2023/06/20 07:58:32;;;;;;;;;;;;;;;24.06;61.07;100969.03;5038547;28;1358;-81
2023/06/20 08:01:00;;;;;;;;;;;;;;;24.12;60.87;100968.19;5019813;28;1728;-81
2023/06/20 08:03:26;;;;;;;;;;;;;;;24.17;60.95;100967.56;5035092;28;1221;-81
2023/06/20 08:05:51;;;;;;;;;;;;;;;24.23;61.22;100964.06;5020787;28;1960;-81
2023/06/20 08:08:17;;;;;;;;;;;;;;;24.32;61.15;100971.56;5020308;28;1331;-82
2023/06/20 08:10:42;;;;;;;;;;;;;;;24.39;60.63;100976.06;5013515;28;2069;-84
2023/06/20 08:13:07;;;;;;;;;;;;;;;24.41;60.41;100966.84;5014185;28;1333;-83
2023/06/20 08:15:32;;;;;;;;;;;;;;;24.52;61.42;100960.06;5014522;28;1769;-81
2023/06/20 08:17:57;;;;;;;;;;;;;;;24.57;60.41;100954.94;5019476;28;908;-81
2023/06/20 08:20:23;;;;;;;;;;;;;;;24.64;59.98;100951.19;5021652;28;1276;-81
2023/06/20 08:22:48;;;;;;;;;;;;;;;24.72;60.16;100963.41;5018549;28;1292;-82
2023/06/20 08:25:13;;;;;;;;;;;;;;;24.78;60.41;100953.78;5023447;28;1918;-81
2023/06/20 08:27:38;;;;;;;;;;;;;;;24.88;59.95;100952.25;5019405;28;1833;-81
2023/06/20 08:30:04;;;;;;;;;;;;;;;24.99;59.55;100952.56;5019769;28;1187;-81
2023/06/20 08:32:29;;;;;;;;;;;;;;;25.10;59.44;100951.91;5021736;28;1130;-82
2023/06/20 08:34:54;;;;;;;;;;;;;;;25.20;59.54;100959.38;5018501;28;1266;-82
2023/06/20 08:37:23;;;;;;;;;;;;;;;25.28;58.09;100962.53;5021057;28;1078;-81
2023/06/20 08:39:48;;;;;;;;;;;;;;;25.36;59.29;100964.94;5018651;28;1137;-81
2023/06/20 08:42:13;;;;;;;;;;;;;;;25.50;58.24;100980.72;5016918;28;1149;-81
2023/06/20 08:44:39;;;;;;;;;;;;;;;25.54;58.58;100973.94;5020644;28;1886;-81
2023/06/20 08:47:04;;;;;;;;;;;;;;;25.64;58.39;100977.72;5019292;28;1049;-82
2023/06/20 08:49:29;;;;;;;;;;;;;;;25.76;57.37;100969.84;5022368;28;1327;-81
2023/06/20 08:51:58;;;;;;;;;;;;;;;25.83;57.33;100970.59;5022898;28;1323;-82
2023/06/20 08:54:25;;;;;;;;;;;;;;;25.92;57.50;100971.91;5020582;28;1595;-81
2023/06/20 08:56:50;;;;;;;;;;;;;;;26.03;57.22;100965.00;5022623;28;1065;-81
2023/06/20 08:59:19;;;;;;;;;;;;;;;26.06;57.29;100958.47;5020651;28;1192;-81
2023/06/20 09:01:45;;;;;;;;;;;;;;;26.12;56.72;100960.22;5024425;28;1267;-81
2023/06/20 09:04:11;;;;;;;;;;;;;;;26.25;57.10;100957.38;5012752;28;1934;-81
2023/06/20 09:06:39;;;;;;;;;;;;;;;26.36;56.36;100959.25;5017657;28;1527;-82
2023/06/20 09:09:05;;;;;;;;;;;;;;;26.41;56.19;100961.28;5022961;28;1285;-81
2023/06/20 09:11:33;;;;;;;;;;;;;;;26.39;56.36;100966.00;5017651;28;1302;-82
2023/06/20 09:14:01;;;;;;;;;;;;;;;26.43;55.63;100960.00;5021989;28;1268;-82
2023/06/20 09:16:28;;;;;;;;;;;;;;;26.37;56.39;100960.88;5018072;28;1154;-82
2023/06/20 09:18:57;;;;;;;;;;;;;;;26.38;56.12;100957.22;5023538;28;1211;-81
2023/06/20 09:21:23;;;;;;;;;;;;;;;26.30;56.15;100952.19;5028526;28;1300;-81
2023/06/20 09:23:48;;;;;;;;;;;;;;;26.32;56.40;100950.09;5023591;28;1284;-81
2023/06/20 09:26:15;;;;;;;;;;;;;;;26.44;56.54;100951.00;5026641;28;1902;-81
2023/06/20 09:28:40;;;;;;;;;;;;;;;26.59;55.99;100947.09;5024029;28;1370;-81
2023/06/20 09:31:05;;;;;;;;;;;;;;;26.66;55.55;100953.13;5020373;28;1573;-81
2023/06/20 09:33:30;;;;;;;;;;;;;;;26.68;55.41;100962.50;5022308;28;1337;-80
2023/06/20 09:36:15;;;;;;;;;;;;;;;26.64;55.20;100955.22;5018003;28;1280;-81
2023/06/20 09:38:41;;;;;;;;;;;;;;;26.63;55.56;100958.91;5024036;28;1469;-81
2023/06/20 09:41:06;;;;;;;;;;;;;;;26.69;55.22;100960.66;5029396;28;1323;-82
2023/06/20 09:43:32;;;;;;;;;;;;;;;26.78;54.86;100953.94;5025897;28;1499;-81
2023/06/20 09:45:57;;;;;;;;;;;;;;;26.91;54.58;100955.63;5024799;28;1910;-81
2023/06/20 09:48:23;;;;;;;;;;;;;;;27.04;54.42;100949.25;5027030;28;1501;-80
2023/06/20 09:50:49;;;;;;;;;;;;;;;27.13;53.83;100954.03;5024791;28;1486;-81
2023/06/20 09:53:14;;;;;;;;;;;;;;;27.24;52.96;100963.03;5021263;28;1204;-81
2023/06/20 09:55:40;;;;;;;;;;;;;;;27.39;52.89;100962.59;5027905;28;1655;-81
2023/06/20 09:58:05;;;;;;;;;;;;;;;27.49;53.52;100957.47;5027753;28;1335;-81
2023/06/20 10:00:31;;;;;;;;;;;;;;;27.57;52.75;100958.97;5030114;28;1233;-81
2023/06/20 10:03:01;;;;;;;;;;;;;;;27.72;52.96;100956.66;5022694;28;1489;-82
2023/06/20 10:05:27;;;;;;;;;;;;;;;27.85;52.70;100961.72;5008171;28;1997;-82
2023/06/20 10:07:57;;;;;;;;;;;;;;;27.80;50.81;100964.28;5021838;28;1296;-81
2023/06/20 10:10:22;;;;;;;;;;;;;;;27.78;52.26;100963.72;5025628;28;1237;-81
2023/06/20 10:12:48;;;;;;;;;;;;;;;27.79;52.01;100962.66;5016692;28;1305;-82
2023/06/20 10:15:14;;;;;;;;;;;;;;;27.94;51.97;100954.97;5016461;28;1390;-80
2023/06/20 10:17:43;;;;;;;;;;;;;;;27.98;51.19;100948.09;5024366;28;1166;-81
2023/06/20 10:20:23;;;;;;;;;;;;;;;28.09;51.19;100956.31;5019708;28;1080;-81
2023/06/20 10:22:49;;;;;;;;;;;;;;;28.02;50.98;100945.78;5020228;28;1109;-81
2023/06/20 10:25:15;;;;;;;;;;;;;;;27.98;51.04;100950.78;5018916;28;1914;-81
2023/06/20 10:27:53;;;;;;;;;;;;;;;28.10;51.23;100941.91;5022908;28;1189;-81
2023/06/20 10:30:38;;;;;;;;;;;;;;;28.19;50.96;100935.16;5020569;28;1134;-81
2023/06/20 10:33:07;;;;;;;;;;;;;;;28.24;50.71;100948.59;5023706;28;1227;-81
2023/06/20 10:35:33;;;;;;;;;;;;;;;28.11;49.25;100944.38;5021019;28;947;-81
2023/06/20 10:38:11;;;;;;;;;;;;;;;28.12;49.38;100939.84;5023113;28;1109;-81
2023/06/20 10:40:39;;;;;;;;;;;;;;;28.20;50.68;100936.78;5038153;28;1159;-80
2023/06/20 10:43:05;;;;;;;;;;;;;;;28.31;50.44;100933.25;5017626;28;1401;-81
2023/06/20 10:45:31;;;;;;;;;;;;;;;28.48;50.34;100931.44;5020852;28;1890;-80
2023/06/20 10:47:57;;;;;;;;;;;;;;;28.62;49.56;100925.78;5022728;28;961;-81
2023/06/20 10:50:22;;;;;;;;;;;;;;;28.72;49.51;100933.94;5022816;28;1232;-81
2023/06/20 10:52:47;;;;;;;;;;;;;;;28.89;49.44;100924.06;5014165;28;1317;-81
2023/06/20 10:55:14;;;;;;;;;;;;;;;28.91;47.91;100927.31;5017465;28;1185;-82
2023/06/20 10:57:46;;;;;;;;;;;;;;;28.84;48.71;100915.97;5024865;28;1334;-82
2023/06/20 11:00:17;;;;;;;;;;;;;;;28.87;47.96;100910.16;5024442;28;1038;-80
2023/06/20 11:02:43;;;;;;;;;;;;;;;28.92;48.77;100907.56;5024424;28;1218;-82
2023/06/20 11:05:09;;;;;;;;;;;;;;;29.00;48.44;100899.16;5020857;28;1926;-81
2023/06/20 11:07:34;;;;;;;;;;;;;;;29.18;48.85;100897.28;5020540;28;1162;-81
2023/06/20 11:10:11;;;;;;;;;;;;;;;29.34;47.89;100902.56;5016050;28;1092;-81
2023/06/20 11:12:40;;;;;;;;;;;;;;;29.52;48.14;100895.28;5019105;28;1030;-81
2023/06/20 11:15:21;;;;;;;;;;;;;;;29.65;47.55;100894.13;5022609;28;1383;-81
2023/06/20 11:17:46;;;;;;;;;;;;;;;29.61;46.85;100886.63;5019415;28;1462;-82
2023/06/20 11:20:12;;;;;;;;;;;;;;;29.59;45.94;100886.09;5021327;28;1278;-81
2023/06/20 11:22:37;;;;;;;;;;;;;;;29.54;46.76;100869.97;5022474;28;1570;-80
2023/06/20 11:25:03;;;;;;;;;;;;;;;29.51;46.34;100875.78;5021231;28;1886;-81
2023/06/20 11:27:28;;;;;;;;;;;;;;;29.55;46.66;100874.25;5019729;28;1648;-81
2023/06/20 11:29:54;;;;;;;;;;;;;;;29.65;45.74;100872.75;5021590;28;1295;-81
2023/06/20 11:32:20;;;;;;;;;;;;;;;29.67;46.67;100870.66;5025226;28;1481;-81
2023/06/20 11:34:56;;;;;;;;;;;;;;;29.75;45.47;100875.53;5018913;28;1101;-81
2023/06/20 11:37:21;;;;;;;;;;;;;;;29.79;45.76;100872.13;5020562;28;1396;-82
2023/06/20 11:39:47;;;;;;;;;;;;;;;29.81;46.26;100871.84;5023683;28;1287;-82
2023/06/20 11:42:18;;;;;;;;;;;;;;;29.76;45.91;100869.13;5022803;28;1480;-82
2023/06/20 11:44:44;;;;;;;;;;;;;;;29.75;46.19;100878.22;5024345;28;1898;-81
2023/06/20 11:47:09;;;;;;;;;;;;;;;29.83;45.80;100875.09;5026093;28;1389;-81
2023/06/20 11:49:38;;;;;;;;;;;;;;;29.96;45.39;100873.88;5021562;28;1651;-82
2023/06/20 11:52:05;;;;;;;;;;;;;;;30.12;45.68;100879.16;5018922;28;1278;-82
2023/06/20 11:54:45;;;;;;;;;;;;;;;30.20;45.28;100879.75;5021718;28;1375;-82
2023/06/20 11:57:11;;;;;;;;;;;;;;;30.14;44.97;100871.69;5022272;28;1243;-81
2023/06/20 11:59:36;;;;;;;;;;;;;;;30.10;43.68;100867.84;5020942;28;1307;-81
2023/06/20 12:02:02;;;;;;;;;;;;;;;30.18;45.35;100855.13;5024566;28;1636;-82
2023/06/20 12:04:27;;;;;;;;;;;;;;;30.35;44.18;100867.31;5021504;28;1981;-81
2023/06/20 12:07:02;;;;;;;;;;;;;;;30.45;43.75;100866.56;5022473;28;1341;-83
2023/06/20 12:09:37;;;;;;;;;;;;;;;30.60;44.22;100871.25;5013512;28;1345;-81
2023/06/20 12:12:02;;;;;;;;;;;;;;;30.75;43.21;100862.53;5014883;28;1173;-82
2023/06/20 12:14:27;;;;;;;;;;;;;;;30.83;43.06;100862.03;5014601;28;1294;-81
2023/06/20 12:16:52;;;;;;;;;;;;;;;30.93;42.77;100862.13;5014097;28;1334;-81
2023/06/20 12:19:21;;;;;;;;;;;;;;;31.04;42.14;100868.34;5038096;28;1299;-83
2023/06/20 12:21:47;;;;;;;;;;;;;;;31.07;40.97;100865.91;5024208;28;1249;-82
2023/06/20 12:24:12;;;;;;;;;;;;;;;31.09;42.72;100866.47;5016056;28;1890;-81
2023/06/20 12:26:37;;;;;;;;;;;;;;;31.22;42.46;100869.75;5034518;28;1286;-81
2023/06/20 12:29:04;;;;;;;;;;;;;;;31.26;42.07;100865.53;5022576;28;1219;-82
2023/06/20 12:31:31;;;;;;;;;;;;;;;31.26;42.07;100866.31;5017657;28;1511;-83
2023/06/20 12:33:56;;;;;;;;;;;;;;;31.17;40.86;100857.94;5018858;28;1468;-81
2023/06/20 12:36:21;;;;;;;;;;;;;;;31.15;42.45;100854.72;5021378;28;1106;-82
2023/06/20 12:38:47;;;;;;;;;;;;;;;31.07;41.64;100847.16;5019469;28;1406;-82
2023/06/20 12:41:12;;;;;;;;;;;;;;;31.12;41.74;100844.50;5017046;28;1194;-81
2023/06/20 12:43:38;;;;;;;;;;;;;;;31.20;41.76;100846.72;5026082;28;1353;-79